LESA/SLM METAR and TAF weather

Enter ICAO airport designator
Station Type Date Time Source
LESA METAR 2022/01/29 10:00 UTC NOAA

LESA 291000Z 10010KT CAVOK 03/M05 Q1034


Station Type Date Time Source
LESA Decoded METAR 2022/01/29 10:00 UTC NOAA

Salamanca / Matacan, Spain (LESA) 40-57N 005-30W 795M
Jan 29, 2022 - 05:00 AM EST / 2022.01.29 1000 UTC
Wind: from the E (100 degrees) at 12 MPH (10 KT):0
Visibility: greater than 7 mile(s):0
Temperature: 37 F (3 C)
Dew Point: 23 F (-5 C)
Relative Humidity: 55%
Pressure (altimeter): 30.53 in. Hg (1034 hPa)
ob: LESA 291000Z 10010KT CAVOK 03/M05 Q1034
cycle: 10

Station Type Date Time Source
LESA TAF 2022/01/29 09:27 UTC NOAA

TAF LESA 290800Z 2909/3009 VRB04KT CAVOK TX15/2915Z TNM06/3007Z
TEMPO 2910/2918 06008KT

Example: see airport list